sensor_id;sensor_type;location;lat;lon;timestamp;P1;durP1;ratioP1;P2;durP2;ratioP2
20138;SDS011;10230;51.502;10.800;2022-08-07T00:02:00;8.70;;;1.40;;
20138;SDS011;10230;51.502;10.800;2022-08-07T00:04:26;1.20;;;0.90;;
20138;SDS011;10230;51.502;10.800;2022-08-07T00:06:52;1.90;;;0.90;;
20138;SDS011;10230;51.502;10.800;2022-08-07T00:09:19;0.77;;;0.60;;
20138;SDS011;10230;51.502;10.800;2022-08-07T00:11:46;2.87;;;1.23;;
20138;SDS011;10230;51.502;10.800;2022-08-07T00:14:12;2.17;;;1.00;;
20138;SDS011;10230;51.502;10.800;2022-08-07T00:16:38;2.47;;;0.90;;
20138;SDS011;10230;51.502;10.800;2022-08-07T00:19:04;2.20;;;0.80;;
20138;SDS011;10230;51.502;10.800;2022-08-07T00:21:30;1.27;;;0.70;;
20138;SDS011;10230;51.502;10.800;2022-08-07T00:23:56;1.27;;;0.87;;
20138;SDS011;10230;51.502;10.800;2022-08-07T00:26:22;1.20;;;0.67;;
20138;SDS011;10230;51.502;10.800;2022-08-07T00:28:48;2.03;;;1.00;;
20138;SDS011;10230;51.502;10.800;2022-08-07T00:31:15;2.93;;;1.20;;
20138;SDS011;10230;51.502;10.800;2022-08-07T00:33:41;1.03;;;0.83;;
20138;SDS011;10230;51.502;10.800;2022-08-07T00:36:07;4.63;;;1.10;;
20138;SDS011;10230;51.502;10.800;2022-08-07T00:38:33;1.90;;;0.95;;
20138;SDS011;10230;51.502;10.800;2022-08-07T00:41:01;0.83;;;0.80;;
20138;SDS011;10230;51.502;10.800;2022-08-07T00:43:27;1.73;;;0.80;;
20138;SDS011;10230;51.502;10.800;2022-08-07T00:45:53;2.37;;;0.70;;
20138;SDS011;10230;51.502;10.800;2022-08-07T00:48:19;1.00;;;0.63;;
20138;SDS011;10230;51.502;10.800;2022-08-07T00:50:45;1.80;;;0.90;;
20138;SDS011;10230;51.502;10.800;2022-08-07T00:53:11;2.07;;;1.10;;
20138;SDS011;10230;51.502;10.800;2022-08-07T00:55:37;1.30;;;0.97;;
20138;SDS011;10230;51.502;10.800;2022-08-07T00:58:03;3.07;;;1.13;;
20138;SDS011;10230;51.502;10.800;2022-08-07T01:00:29;2.83;;;1.42;;
20138;SDS011;10230;51.502;10.800;2022-08-07T01:02:55;1.17;;;1.00;;
20138;SDS011;10230;51.502;10.800;2022-08-07T01:05:22;1.97;;;1.00;;
20138;SDS011;10230;51.502;10.800;2022-08-07T01:07:48;1.37;;;0.90;;
20138;SDS011;10230;51.502;10.800;2022-08-07T01:10:14;2.37;;;0.80;;
20138;SDS011;10230;51.502;10.800;2022-08-07T01:12:41;0.83;;;0.80;;
20138;SDS011;10230;51.502;10.800;2022-08-07T01:15:07;1.30;;;0.70;;
20138;SDS011;10230;51.502;10.800;2022-08-07T01:17:34;1.73;;;0.87;;
20138;SDS011;10230;51.502;10.800;2022-08-07T01:20:02;0.97;;;0.60;;
20138;SDS011;10230;51.502;10.800;2022-08-07T01:22:29;1.63;;;0.70;;
20138;SDS011;10230;51.502;10.800;2022-08-07T01:24:55;1.03;;;0.70;;
20138;SDS011;10230;51.502;10.800;2022-08-07T01:27:22;1.43;;;0.73;;
20138;SDS011;10230;51.502;10.800;2022-08-07T01:29:48;0.77;;;0.60;;
20138;SDS011;10230;51.502;10.800;2022-08-07T01:32:15;1.80;;;0.80;;
20138;SDS011;10230;51.502;10.800;2022-08-07T01:34:41;0.70;;;0.50;;
20138;SDS011;10230;51.502;10.800;2022-08-07T01:37:09;3.00;;;0.80;;
20138;SDS011;10230;51.502;10.800;2022-08-07T01:39:37;2.07;;;0.93;;
20138;SDS011;10230;51.502;10.800;2022-08-07T01:42:03;1.70;;;0.83;;
20138;SDS011;10230;51.502;10.800;2022-08-07T01:44:29;2.43;;;1.10;;
20138;SDS011;10230;51.502;10.800;2022-08-07T01:46:56;1.90;;;1.03;;
20138;SDS011;10230;51.502;10.800;2022-08-07T01:49:22;1.50;;;1.20;;
20138;SDS011;10230;51.502;10.800;2022-08-07T01:51:48;1.27;;;0.90;;
20138;SDS011;10230;51.502;10.800;2022-08-07T01:54:15;1.23;;;0.93;;
20138;SDS011;10230;51.502;10.800;2022-08-07T01:59:14;2.00;;;1.30;;
20138;SDS011;10230;51.502;10.800;2022-08-07T02:01:42;1.90;;;1.20;;
20138;SDS011;10230;51.502;10.800;2022-08-07T02:04:15;2.93;;;1.40;;
20138;SDS011;10230;51.502;10.800;2022-08-07T02:06:41;2.53;;;1.63;;
20138;SDS011;10230;51.502;10.800;2022-08-07T02:09:09;2.43;;;1.60;;
20138;SDS011;10230;51.502;10.800;2022-08-07T02:11:37;2.30;;;1.40;;
20138;SDS011;10230;51.502;10.800;2022-08-07T02:14:04;2.03;;;1.00;;
20138;SDS011;10230;51.502;10.800;2022-08-07T02:16:31;1.90;;;1.07;;
20138;SDS011;10230;51.502;10.800;2022-08-07T02:19:00;1.03;;;0.70;;
20138;SDS011;10230;51.502;10.800;2022-08-07T02:21:27;4.00;;;0.90;;
20138;SDS011;10230;51.502;10.800;2022-08-07T02:23:53;0.87;;;0.60;;
20138;SDS011;10230;51.502;10.800;2022-08-07T02:26:19;1.80;;;1.10;;
20138;SDS011;10230;51.502;10.800;2022-08-07T02:28:46;0.90;;;0.70;;
20138;SDS011;10230;51.502;10.800;2022-08-07T02:31:12;1.73;;;1.00;;
20138;SDS011;10230;51.502;10.800;2022-08-07T02:33:39;1.23;;;1.00;;
20138;SDS011;10230;51.502;10.800;2022-08-07T02:36:05;1.60;;;1.30;;
20138;SDS011;10230;51.502;10.800;2022-08-07T02:38:34;2.30;;;1.70;;
20138;SDS011;10230;51.502;10.800;2022-08-07T02:41:01;1.83;;;1.20;;
20138;SDS011;10230;51.502;10.800;2022-08-07T02:43:28;1.63;;;1.10;;
20138;SDS011;10230;51.502;10.800;2022-08-07T02:45:56;1.73;;;1.00;;
20138;SDS011;10230;51.502;10.800;2022-08-07T02:48:23;1.50;;;0.90;;
20138;SDS011;10230;51.502;10.800;2022-08-07T02:50:51;1.63;;;0.87;;
20138;SDS011;10230;51.502;10.800;2022-08-07T02:53:25;0.80;;;0.73;;
20138;SDS011;10230;51.502;10.800;2022-08-07T02:55:52;3.17;;;0.90;;
20138;SDS011;10230;51.502;10.800;2022-08-07T02:58:19;1.40;;;0.80;;
20138;SDS011;10230;51.502;10.800;2022-08-07T03:00:50;1.63;;;0.83;;
20138;SDS011;10230;51.502;10.800;2022-08-07T03:03:18;1.37;;;0.80;;
20138;SDS011;10230;51.502;10.800;2022-08-07T03:05:44;1.93;;;1.30;;
20138;SDS011;10230;51.502;10.800;2022-08-07T03:08:10;2.30;;;1.10;;
20138;SDS011;10230;51.502;10.800;2022-08-07T03:10:37;1.13;;;0.60;;
20138;SDS011;10230;51.502;10.800;2022-08-07T03:13:03;0.80;;;0.77;;
20138;SDS011;10230;51.502;10.800;2022-08-07T03:15:30;1.83;;;1.30;;
20138;SDS011;10230;51.502;10.800;2022-08-07T03:17:56;2.60;;;1.73;;
20138;SDS011;10230;51.502;10.800;2022-08-07T03:20:23;2.17;;;1.17;;
20138;SDS011;10230;51.502;10.800;2022-08-07T03:22:50;2.30;;;1.63;;
20138;SDS011;10230;51.502;10.800;2022-08-07T03:25:17;3.30;;;1.10;;
20138;SDS011;10230;51.502;10.800;2022-08-07T03:27:45;1.60;;;1.40;;
20138;SDS011;10230;51.502;10.800;2022-08-07T03:30:11;2.60;;;1.60;;
20138;SDS011;10230;51.502;10.800;2022-08-07T03:32:38;2.63;;;1.70;;
20138;SDS011;10230;51.502;10.800;2022-08-07T03:35:05;2.70;;;1.10;;
20138;SDS011;10230;51.502;10.800;2022-08-07T03:37:33;1.67;;;0.73;;
20138;SDS011;10230;51.502;10.800;2022-08-07T03:39:59;1.00;;;0.80;;
20138;SDS011;10230;51.502;10.800;2022-08-07T03:42:25;1.90;;;0.70;;
20138;SDS011;10230;51.502;10.800;2022-08-07T03:44:51;2.43;;;1.00;;
20138;SDS011;10230;51.502;10.800;2022-08-07T03:47:18;1.00;;;0.90;;
20138;SDS011;10230;51.502;10.800;2022-08-07T03:49:44;1.00;;;0.60;;
20138;SDS011;10230;51.502;10.800;2022-08-07T03:52:10;1.10;;;0.70;;
20138;SDS011;10230;51.502;10.800;2022-08-07T03:54:36;6.83;;;1.20;;
20138;SDS011;10230;51.502;10.800;2022-08-07T03:57:03;1.23;;;0.60;;
20138;SDS011;10230;51.502;10.800;2022-08-07T03:59:30;2.67;;;0.70;;
20138;SDS011;10230;51.502;10.800;2022-08-07T04:01:56;0.70;;;0.60;;
20138;SDS011;10230;51.502;10.800;2022-08-07T04:04:23;1.07;;;0.60;;
20138;SDS011;10230;51.502;10.800;2022-08-07T04:06:50;0.77;;;0.60;;
20138;SDS011;10230;51.502;10.800;2022-08-07T04:09:16;0.93;;;0.53;;
20138;SDS011;10230;51.502;10.800;2022-08-07T04:11:43;3.60;;;0.73;;
20138;SDS011;10230;51.502;10.800;2022-08-07T04:14:09;0.80;;;0.70;;
20138;SDS011;10230;51.502;10.800;2022-08-07T04:16:35;0.70;;;0.60;;
20138;SDS011;10230;51.502;10.800;2022-08-07T04:19:02;1.20;;;0.60;;
20138;SDS011;10230;51.502;10.800;2022-08-07T04:21:28;0.60;;;0.50;;
20138;SDS011;10230;51.502;10.800;2022-08-07T04:23:54;0.93;;;0.70;;
20138;SDS011;10230;51.502;10.800;2022-08-07T04:26:21;2.27;;;0.90;;
20138;SDS011;10230;51.502;10.800;2022-08-07T04:28:47;0.70;;;0.47;;
20138;SDS011;10230;51.502;10.800;2022-08-07T04:31:13;1.70;;;0.40;;
20138;SDS011;10230;51.502;10.800;2022-08-07T04:33:39;1.60;;;0.60;;
20138;SDS011;10230;51.502;10.800;2022-08-07T04:36:06;0.53;;;0.53;;
20138;SDS011;10230;51.502;10.800;2022-08-07T04:38:33;1.80;;;0.50;;
20138;SDS011;10230;51.502;10.800;2022-08-07T04:40:59;0.73;;;0.60;;
20138;SDS011;10230;51.502;10.800;2022-08-07T04:43:27;0.90;;;0.40;;
20138;SDS011;10230;51.502;10.800;2022-08-07T04:46:06;2.00;;;0.63;;
20138;SDS011;10230;51.502;10.800;2022-08-07T04:51:03;2.27;;;0.60;;
20138;SDS011;10230;51.502;10.800;2022-08-07T04:53:34;1.73;;;0.70;;
20138;SDS011;10230;51.502;10.800;2022-08-07T05:01:20;1.90;;;1.27;;
20138;SDS011;10230;51.502;10.800;2022-08-07T05:03:51;5.17;;;1.83;;
20138;SDS011;10230;51.502;10.800;2022-08-07T05:06:24;1.70;;;1.23;;
20138;SDS011;10230;51.502;10.800;2022-08-07T05:09:03;0.73;;;0.73;;
20138;SDS011;10230;51.502;10.800;2022-08-07T05:11:33;0.90;;;0.77;;
20138;SDS011;10230;51.502;10.800;2022-08-07T05:14:01;1.57;;;0.80;;
20138;SDS011;10230;51.502;10.800;2022-08-07T05:16:29;1.40;;;0.70;;
20138;SDS011;10230;51.502;10.800;2022-08-07T05:18:58;0.70;;;0.63;;
20138;SDS011;10230;51.502;10.800;2022-08-07T05:21:26;1.97;;;0.63;;
20138;SDS011;10230;51.502;10.800;2022-08-07T05:23:54;1.93;;;0.70;;
20138;SDS011;10230;51.502;10.800;2022-08-07T05:26:23;0.87;;;0.70;;
20138;SDS011;10230;51.502;10.800;2022-08-07T05:28:52;1.40;;;0.70;;
20138;SDS011;10230;51.502;10.800;2022-08-07T05:31:19;0.63;;;0.60;;
20138;SDS011;10230;51.502;10.800;2022-08-07T05:33:45;3.07;;;0.60;;
20138;SDS011;10230;51.502;10.800;2022-08-07T05:36:13;2.80;;;1.10;;
20138;SDS011;10230;51.502;10.800;2022-08-07T05:38:40;2.90;;;0.90;;
20138;SDS011;10230;51.502;10.800;2022-08-07T05:41:07;0.98;;;0.70;;
20138;SDS011;10230;51.502;10.800;2022-08-07T05:43:34;3.23;;;1.97;;
20138;SDS011;10230;51.502;10.800;2022-08-07T05:46:00;1.25;;;1.00;;
20138;SDS011;10230;51.502;10.800;2022-08-07T05:48:27;1.70;;;0.90;;
20138;SDS011;10230;51.502;10.800;2022-08-07T05:50:55;2.95;;;1.77;;
20138;SDS011;10230;51.502;10.800;2022-08-07T05:53:21;1.23;;;1.05;;
20138;SDS011;10230;51.502;10.800;2022-08-07T05:55:48;1.47;;;1.00;;
20138;SDS011;10230;51.502;10.800;2022-08-07T05:58:15;1.83;;;0.68;;
20138;SDS011;10230;51.502;10.800;2022-08-07T06:00:41;2.20;;;1.90;;
20138;SDS011;10230;51.502;10.800;2022-08-07T06:03:08;2.97;;;2.47;;
20138;SDS011;10230;51.502;10.800;2022-08-07T06:05:35;2.50;;;1.70;;
20138;SDS011;10230;51.502;10.800;2022-08-07T06:08:01;1.25;;;1.10;;
20138;SDS011;10230;51.502;10.800;2022-08-07T06:10:28;1.03;;;0.80;;
20138;SDS011;10230;51.502;10.800;2022-08-07T06:12:54;1.50;;;0.80;;
20138;SDS011;10230;51.502;10.800;2022-08-07T06:15:20;1.00;;;0.70;;
20138;SDS011;10230;51.502;10.800;2022-08-07T06:17:46;1.08;;;0.73;;
20138;SDS011;10230;51.502;10.800;2022-08-07T06:20:13;0.77;;;0.77;;
20138;SDS011;10230;51.502;10.800;2022-08-07T06:22:39;1.70;;;0.50;;
20138;SDS011;10230;51.502;10.800;2022-08-07T06:25:07;1.02;;;0.70;;
20138;SDS011;10230;51.502;10.800;2022-08-07T06:27:33;0.82;;;0.63;;
20138;SDS011;10230;51.502;10.800;2022-08-07T06:29:59;1.90;;;0.95;;
20138;SDS011;10230;51.502;10.800;2022-08-07T06:32:26;0.80;;;0.45;;
20138;SDS011;10230;51.502;10.800;2022-08-07T06:34:52;1.00;;;0.70;;
20138;SDS011;10230;51.502;10.800;2022-08-07T06:37:18;1.10;;;0.90;;
20138;SDS011;10230;51.502;10.800;2022-08-07T06:39:44;1.23;;;0.80;;
20138;SDS011;10230;51.502;10.800;2022-08-07T06:44:43;0.75;;;0.60;;
20138;SDS011;10230;51.502;10.800;2022-08-07T06:47:10;2.17;;;0.80;;
20138;SDS011;10230;51.502;10.800;2022-08-07T06:49:36;2.13;;;0.90;;
20138;SDS011;10230;51.502;10.800;2022-08-07T06:52:03;1.55;;;0.70;;
20138;SDS011;10230;51.502;10.800;2022-08-07T06:54:30;0.50;;;0.50;;
20138;SDS011;10230;51.502;10.800;2022-08-07T06:56:56;1.55;;;0.60;;
20138;SDS011;10230;51.502;10.800;2022-08-07T06:59:25;3.25;;;0.90;;
20138;SDS011;10230;51.502;10.800;2022-08-07T07:01:51;1.73;;;0.63;;
20138;SDS011;10230;51.502;10.800;2022-08-07T07:04:18;2.00;;;0.70;;
20138;SDS011;10230;51.502;10.800;2022-08-07T07:06:44;0.90;;;0.50;;
20138;SDS011;10230;51.502;10.800;2022-08-07T07:09:27;1.15;;;0.68;;
20138;SDS011;10230;51.502;10.800;2022-08-07T07:14:30;0.93;;;0.63;;
20138;SDS011;10230;51.502;10.800;2022-08-07T07:16:58;1.45;;;0.55;;
20138;SDS011;10230;51.502;10.800;2022-08-07T07:19:31;0.95;;;0.50;;
20138;SDS011;10230;51.502;10.800;2022-08-07T07:21:58;2.88;;;0.57;;
20138;SDS011;10230;51.502;10.800;2022-08-07T07:24:24;3.53;;;1.23;;
20138;SDS011;10230;51.502;10.800;2022-08-07T07:26:52;4.30;;;3.45;;
20138;SDS011;10230;51.502;10.800;2022-08-07T07:29:22;1.90;;;1.40;;
20138;SDS011;10230;51.502;10.800;2022-08-07T07:31:49;3.40;;;1.35;;
20138;SDS011;10230;51.502;10.800;2022-08-07T07:34:21;4.95;;;1.60;;
20138;SDS011;10230;51.502;10.800;2022-08-07T07:36:48;3.05;;;1.73;;
20138;SDS011;10230;51.502;10.800;2022-08-07T07:39:14;3.63;;;1.58;;
20138;SDS011;10230;51.502;10.800;2022-08-07T07:41:40;1.83;;;1.00;;
20138;SDS011;10230;51.502;10.800;2022-08-07T07:44:08;2.90;;;1.10;;
20138;SDS011;10230;51.502;10.800;2022-08-07T07:46:35;2.45;;;1.00;;
20138;SDS011;10230;51.502;10.800;2022-08-07T07:49:02;2.70;;;1.60;;
20138;SDS011;10230;51.502;10.800;2022-08-07T07:51:29;2.10;;;0.90;;
20138;SDS011;10230;51.502;10.800;2022-08-07T07:53:56;1.58;;;0.98;;
20138;SDS011;10230;51.502;10.800;2022-08-07T07:56:23;3.13;;;1.10;;
20138;SDS011;10230;51.502;10.800;2022-08-07T07:58:49;3.33;;;0.77;;
20138;SDS011;10230;51.502;10.800;2022-08-07T08:01:15;0.68;;;0.40;;
20138;SDS011;10230;51.502;10.800;2022-08-07T08:03:42;3.70;;;1.60;;
20138;SDS011;10230;51.502;10.800;2022-08-07T08:06:08;0.60;;;0.50;;
20138;SDS011;10230;51.502;10.800;2022-08-07T08:08:35;1.50;;;0.60;;
20138;SDS011;10230;51.502;10.800;2022-08-07T08:11:05;1.35;;;0.80;;
20138;SDS011;10230;51.502;10.800;2022-08-07T08:13:31;0.65;;;0.45;;
20138;SDS011;10230;51.502;10.800;2022-08-07T08:15:58;1.63;;;0.50;;
20138;SDS011;10230;51.502;10.800;2022-08-07T08:18:26;1.20;;;0.40;;
20138;SDS011;10230;51.502;10.800;2022-08-07T08:20:53;3.00;;;0.70;;
20138;SDS011;10230;51.502;10.800;2022-08-07T08:23:20;2.17;;;0.52;;
20138;SDS011;10230;51.502;10.800;2022-08-07T08:26:06;2.80;;;1.00;;
20138;SDS011;10230;51.502;10.800;2022-08-07T08:28:51;0.80;;;0.50;;
20138;SDS011;10230;51.502;10.800;2022-08-07T08:31:23;1.08;;;0.70;;
20138;SDS011;10230;51.502;10.800;2022-08-07T08:33:54;0.65;;;0.40;;
20138;SDS011;10230;51.502;10.800;2022-08-07T08:36:26;1.15;;;1.00;;
20138;SDS011;10230;51.502;10.800;2022-08-07T08:38:52;0.70;;;0.30;;
20138;SDS011;10230;51.502;10.800;2022-08-07T08:44:01;1.40;;;0.30;;
20138;SDS011;10230;51.502;10.800;2022-08-07T08:46:40;0.60;;;0.30;;
20138;SDS011;10230;51.502;10.800;2022-08-07T08:49:27;0.55;;;0.50;;
20138;SDS011;10230;51.502;10.800;2022-08-07T08:51:58;1.98;;;1.77;;
20138;SDS011;10230;51.502;10.800;2022-08-07T08:56:52;1.63;;;1.02;;
20138;SDS011;10230;51.502;10.800;2022-08-07T13:26:34;2.30;;;0.70;;
20138;SDS011;10230;51.502;10.800;2022-08-07T13:29:14;1.95;;;0.63;;
20138;SDS011;10230;51.502;10.800;2022-08-07T13:31:48;0.60;;;0.40;;
20138;SDS011;10230;51.502;10.800;2022-08-07T13:34:18;1.17;;;0.60;;
20138;SDS011;10230;51.502;10.800;2022-08-07T13:37:02;1.13;;;1.02;;
20138;SDS011;10230;51.502;10.800;2022-08-07T13:42:23;1.30;;;0.43;;
20138;SDS011;10230;51.502;10.800;2022-08-07T13:44:51;1.35;;;0.60;;
20138;SDS011;10230;51.502;10.800;2022-08-07T13:47:20;0.55;;;0.38;;
20138;SDS011;10230;51.502;10.800;2022-08-07T13:49:50;2.67;;;0.50;;
20138;SDS011;10230;51.502;10.800;2022-08-07T13:52:18;1.25;;;0.60;;
20138;SDS011;10230;51.502;10.800;2022-08-07T13:54:46;3.58;;;0.40;;
20138;SDS011;10230;51.502;10.800;2022-08-07T13:57:12;0.50;;;0.35;;
20138;SDS011;10230;51.502;10.800;2022-08-07T13:59:42;1.17;;;0.30;;
20138;SDS011;10230;51.502;10.800;2022-08-07T14:02:18;0.20;;;0.20;;
20138;SDS011;10230;51.502;10.800;2022-08-07T14:04:48;1.42;;;0.63;;
20138;SDS011;10230;51.502;10.800;2022-08-07T14:07:21;1.50;;;0.68;;
20138;SDS011;10230;51.502;10.800;2022-08-07T14:09:54;2.03;;;0.40;;
20138;SDS011;10230;51.502;10.800;2022-08-07T14:15:00;2.40;;;0.40;;
20138;SDS011;10230;51.502;10.800;2022-08-07T14:17:36;1.33;;;0.50;;
20138;SDS011;10230;51.502;10.800;2022-08-07T14:20:09;1.55;;;0.40;;
20138;SDS011;10230;51.502;10.800;2022-08-07T14:22:35;0.73;;;0.40;;
20138;SDS011;10230;51.502;10.800;2022-08-07T14:25:10;1.52;;;0.30;;
20138;SDS011;10230;51.502;10.800;2022-08-07T14:27:39;1.23;;;0.32;;
20138;SDS011;10230;51.502;10.800;2022-08-07T14:30:14;1.38;;;0.35;;
20138;SDS011;10230;51.502;10.800;2022-08-07T14:32:41;1.02;;;0.68;;
20138;SDS011;10230;51.502;10.800;2022-08-07T14:35:21;1.40;;;0.77;;
20138;SDS011;10230;51.502;10.800;2022-08-07T14:37:49;1.02;;;0.70;;
20138;SDS011;10230;51.502;10.800;2022-08-07T14:40:17;0.65;;;0.45;;
20138;SDS011;10230;51.502;10.800;2022-08-07T14:42:51;2.13;;;0.40;;
20138;SDS011;10230;51.502;10.800;2022-08-07T14:45:17;0.60;;;0.50;;
20138;SDS011;10230;51.502;10.800;2022-08-07T14:47:43;0.88;;;0.50;;
20138;SDS011;10230;51.502;10.800;2022-08-07T14:50:10;1.05;;;0.30;;
20138;SDS011;10230;51.502;10.800;2022-08-07T14:52:43;0.30;;;0.30;;
20138;SDS011;10230;51.502;10.800;2022-08-07T14:55:10;3.05;;;0.50;;
20138;SDS011;10230;51.502;10.800;2022-08-07T15:00:04;1.35;;;0.40;;
20138;SDS011;10230;51.502;10.800;2022-08-07T15:02:32;1.92;;;0.50;;
20138;SDS011;10230;51.502;10.800;2022-08-07T15:05:01;0.60;;;0.60;;
20138;SDS011;10230;51.502;10.800;2022-08-07T15:07:27;0.75;;;0.47;;
20138;SDS011;10230;51.502;10.800;2022-08-07T15:09:55;0.95;;;0.50;;
20138;SDS011;10230;51.502;10.800;2022-08-07T15:12:23;1.65;;;0.90;;
20138;SDS011;10230;51.502;10.800;2022-08-07T15:14:56;0.77;;;0.47;;
20138;SDS011;10230;51.502;10.800;2022-08-07T15:17:24;1.25;;;0.50;;
20138;SDS011;10230;51.502;10.800;2022-08-07T15:20:12;0.65;;;0.30;;
20138;SDS011;10230;51.502;10.800;2022-08-07T15:22:45;1.85;;;0.60;;
20138;SDS011;10230;51.502;10.800;2022-08-07T15:25:17;2.17;;;0.70;;
20138;SDS011;10230;51.502;10.800;2022-08-07T15:27:51;0.70;;;0.40;;
20138;SDS011;10230;51.502;10.800;2022-08-07T15:30:22;0.50;;;0.30;;
20138;SDS011;10230;51.502;10.800;2022-08-07T15:32:49;0.77;;;0.40;;
20138;SDS011;10230;51.502;10.800;2022-08-07T15:35:18;0.40;;;0.40;;
20138;SDS011;10230;51.502;10.800;2022-08-07T15:37:50;0.77;;;0.40;;
20138;SDS011;10230;51.502;10.800;2022-08-07T15:40:21;0.45;;;0.40;;
20138;SDS011;10230;51.502;10.800;2022-08-07T15:42:53;1.33;;;0.50;;
20138;SDS011;10230;51.502;10.800;2022-08-07T15:47:56;2.45;;;0.55;;
20138;SDS011;10230;51.502;10.800;2022-08-07T15:50:27;1.05;;;0.50;;
20138;SDS011;10230;51.502;10.800;2022-08-07T15:52:57;1.30;;;0.40;;
20138;SDS011;10230;51.502;10.800;2022-08-07T15:55:36;0.65;;;0.40;;
20138;SDS011;10230;51.502;10.800;2022-08-07T15:58:08;2.03;;;0.50;;
20138;SDS011;10230;51.502;10.800;2022-08-07T16:00:37;0.63;;;0.60;;
20138;SDS011;10230;51.502;10.800;2022-08-07T16:03:09;2.28;;;0.45;;
20138;SDS011;10230;51.502;10.800;2022-08-07T16:05:46;2.25;;;2.05;;
20138;SDS011;10230;51.502;10.800;2022-08-07T16:08:14;1.98;;;0.70;;
20138;SDS011;10230;51.502;10.800;2022-08-07T16:10:46;3.53;;;1.20;;
20138;SDS011;10230;51.502;10.800;2022-08-07T16:19:13;0.65;;;0.60;;
20138;SDS011;10230;51.502;10.800;2022-08-07T16:21:55;0.52;;;0.40;;
20138;SDS011;10230;51.502;10.800;2022-08-07T16:24:40;1.42;;;0.70;;
20138;SDS011;10230;51.502;10.800;2022-08-07T16:27:31;1.60;;;0.55;;
20138;SDS011;10230;51.502;10.800;2022-08-07T16:45:58;5.53;;;3.35;;
20138;SDS011;10230;51.502;10.800;2022-08-07T17:04:39;0.65;;;0.50;;
20138;SDS011;10230;51.502;10.800;2022-08-07T17:12:49;0.55;;;0.45;;
20138;SDS011;10230;51.502;10.800;2022-08-07T17:16:08;1.33;;;0.40;;
20138;SDS011;10230;51.502;10.800;2022-08-07T17:18:17;0.60;;;0.60;;
20138;SDS011;10230;51.502;10.800;2022-08-07T17:20:56;1.35;;;0.80;;
20138;SDS011;10230;51.502;10.800;2022-08-07T17:23:36;0.80;;;0.50;;
20138;SDS011;10230;51.502;10.800;2022-08-07T17:34:15;0.60;;;0.50;;
20138;SDS011;10230;51.502;10.800;2022-08-07T17:37:39;1.55;;;0.47;;
20138;SDS011;10230;51.502;10.800;2022-08-07T17:40:18;1.92;;;0.50;;
20138;SDS011;10230;51.502;10.800;2022-08-07T17:42:49;2.10;;;0.40;;
20138;SDS011;10230;51.502;10.800;2022-08-07T17:45:16;1.45;;;0.45;;
20138;SDS011;10230;51.502;10.800;2022-08-07T17:47:47;0.68;;;0.45;;
20138;SDS011;10230;51.502;10.800;2022-08-07T17:50:30;2.42;;;0.50;;
20138;SDS011;10230;51.502;10.800;2022-08-07T17:53:04;2.78;;;0.60;;
20138;SDS011;10230;51.502;10.800;2022-08-07T17:58:08;1.33;;;0.50;;
20138;SDS011;10230;51.502;10.800;2022-08-07T18:00:41;0.98;;;0.47;;
20138;SDS011;10230;51.502;10.800;2022-08-07T18:08:07;3.47;;;2.63;;
20138;SDS011;10230;51.502;10.800;2022-08-07T18:10:36;3.03;;;2.08;;
20138;SDS011;10230;51.502;10.800;2022-08-07T18:18:24;1.92;;;1.70;;
20138;SDS011;10230;51.502;10.800;2022-08-07T18:20:56;0.80;;;0.80;;
20138;SDS011;10230;51.502;10.800;2022-08-07T18:23:24;1.63;;;0.75;;
20138;SDS011;10230;51.502;10.800;2022-08-07T18:25:56;0.90;;;0.60;;
20138;SDS011;10230;51.502;10.800;2022-08-07T18:28:30;4.68;;;2.33;;
20138;SDS011;10230;51.502;10.800;2022-08-07T18:31:16;2.85;;;1.92;;
20138;SDS011;10230;51.502;10.800;2022-08-07T18:41:51;2.95;;;1.95;;
20138;SDS011;10230;51.502;10.800;2022-08-07T18:49:52;2.88;;;2.67;;
20138;SDS011;10230;51.502;10.800;2022-08-07T19:00:12;2.92;;;1.52;;
20138;SDS011;10230;51.502;10.800;2022-08-07T19:05:24;1.88;;;1.40;;
20138;SDS011;10230;51.502;10.800;2022-08-07T19:10:38;2.58;;;0.90;;
20138;SDS011;10230;51.502;10.800;2022-08-07T19:13:22;6.13;;;1.25;;
20138;SDS011;10230;51.502;10.800;2022-08-07T19:16:14;2.65;;;1.08;;
20138;SDS011;10230;51.502;10.800;2022-08-07T19:18:47;3.28;;;1.35;;
20138;SDS011;10230;51.502;10.800;2022-08-07T19:21:15;3.67;;;1.10;;
20138;SDS011;10230;51.502;10.800;2022-08-07T19:23:46;2.33;;;0.93;;
20138;SDS011;10230;51.502;10.800;2022-08-07T19:26:13;3.17;;;0.90;;
20138;SDS011;10230;51.502;10.800;2022-08-07T19:28:43;1.63;;;1.00;;
20138;SDS011;10230;51.502;10.800;2022-08-07T19:31:11;2.83;;;0.85;;
20138;SDS011;10230;51.502;10.800;2022-08-07T19:33:38;7.93;;;0.95;;
20138;SDS011;10230;51.502;10.800;2022-08-07T19:36:05;2.00;;;0.90;;
20138;SDS011;10230;51.502;10.800;2022-08-07T19:38:32;1.33;;;0.80;;
20138;SDS011;10230;51.502;10.800;2022-08-07T19:40:59;7.20;;;1.20;;
20138;SDS011;10230;51.502;10.800;2022-08-07T19:43:27;7.05;;;0.70;;
20138;SDS011;10230;51.502;10.800;2022-08-07T19:45:56;1.75;;;0.98;;
20138;SDS011;10230;51.502;10.800;2022-08-07T19:51:16;2.63;;;1.10;;
20138;SDS011;10230;51.502;10.800;2022-08-07T19:53:53;1.33;;;0.75;;
20138;SDS011;10230;51.502;10.800;2022-08-07T19:56:21;3.00;;;1.50;;
20138;SDS011;10230;51.502;10.800;2022-08-07T19:58:47;3.53;;;1.15;;
20138;SDS011;10230;51.502;10.800;2022-08-07T20:01:14;1.38;;;0.60;;
20138;SDS011;10230;51.502;10.800;2022-08-07T20:03:42;4.55;;;1.02;;
20138;SDS011;10230;51.502;10.800;2022-08-07T20:06:09;2.92;;;0.70;;
20138;SDS011;10230;51.502;10.800;2022-08-07T20:08:36;1.17;;;0.90;;
20138;SDS011;10230;51.502;10.800;2022-08-07T20:11:07;2.38;;;1.00;;
20138;SDS011;10230;51.502;10.800;2022-08-07T20:13:47;7.95;;;1.30;;
20138;SDS011;10230;51.502;10.800;2022-08-07T20:16:18;10.73;;;1.17;;
20138;SDS011;10230;51.502;10.800;2022-08-07T20:18:45;2.05;;;0.70;;
20138;SDS011;10230;51.502;10.800;2022-08-07T20:21:12;2.58;;;1.17;;
20138;SDS011;10230;51.502;10.800;2022-08-07T20:23:47;1.35;;;0.60;;
20138;SDS011;10230;51.502;10.800;2022-08-07T20:26:14;1.30;;;0.50;;
20138;SDS011;10230;51.502;10.800;2022-08-07T20:28:41;1.85;;;0.70;;
20138;SDS011;10230;51.502;10.800;2022-08-07T20:31:09;0.90;;;0.70;;
20138;SDS011;10230;51.502;10.800;2022-08-07T20:33:36;0.93;;;0.60;;
20138;SDS011;10230;51.502;10.800;2022-08-07T20:36:03;1.23;;;0.75;;
20138;SDS011;10230;51.502;10.800;2022-08-07T20:38:31;2.88;;;0.80;;
20138;SDS011;10230;51.502;10.800;2022-08-07T20:40:57;0.82;;;0.73;;
20138;SDS011;10230;51.502;10.800;2022-08-07T20:43:27;2.38;;;1.20;;
20138;SDS011;10230;51.502;10.800;2022-08-07T20:45:54;2.60;;;1.10;;
20138;SDS011;10230;51.502;10.800;2022-08-07T20:48:21;0.98;;;0.70;;
20138;SDS011;10230;51.502;10.800;2022-08-07T20:50:56;2.63;;;1.17;;
20138;SDS011;10230;51.502;10.800;2022-08-07T20:53:23;1.20;;;0.63;;
20138;SDS011;10230;51.502;10.800;2022-08-07T20:55:56;1.75;;;0.90;;
20138;SDS011;10230;51.502;10.800;2022-08-07T20:58:24;1.63;;;0.90;;
20138;SDS011;10230;51.502;10.800;2022-08-07T21:00:59;4.50;;;1.33;;
20138;SDS011;10230;51.502;10.800;2022-08-07T21:03:25;1.85;;;1.30;;
20138;SDS011;10230;51.502;10.800;2022-08-07T21:08:26;3.25;;;1.90;;
20138;SDS011;10230;51.502;10.800;2022-08-07T21:10:52;1.67;;;1.23;;
20138;SDS011;10230;51.502;10.800;2022-08-07T21:13:20;4.60;;;2.50;;
20138;SDS011;10230;51.502;10.800;2022-08-07T21:15:49;5.18;;;4.05;;
20138;SDS011;10230;51.502;10.800;2022-08-07T21:18:20;6.60;;;5.20;;
20138;SDS011;10230;51.502;10.800;2022-08-07T21:20:48;5.22;;;4.22;;